sensor_id;sensor_type;location;lat;lon;timestamp;pressure;altitude;pressure_sealevel;temperature;humidity
57462;BME280;43308;47.306;8.608;2023-05-22T00:02:11;94966.66;;;15.45;100.00
57462;BME280;43308;47.306;8.608;2023-05-22T00:04:36;94961.28;;;15.46;100.00
57462;BME280;43308;47.306;8.608;2023-05-22T00:07:02;94957.34;;;15.50;100.00
57462;BME280;43308;47.306;8.608;2023-05-22T00:09:28;94962.22;;;15.53;100.00
57462;BME280;43308;47.306;8.608;2023-05-22T00:11:53;94956.19;;;15.53;100.00
57462;BME280;43308;47.306;8.608;2023-05-22T00:14:19;94959.78;;;15.52;100.00
57462;BME280;43308;47.306;8.608;2023-05-22T00:16:44;94964.53;;;15.48;100.00
57462;BME280;43308;47.306;8.608;2023-05-22T00:19:12;94967.81;;;15.50;100.00
57462;BME280;43308;47.306;8.608;2023-05-22T00:21:41;94969.00;;;15.40;100.00
57462;BME280;43308;47.306;8.608;2023-05-22T00:24:08;94963.13;;;15.38;100.00
57462;BME280;43308;47.306;8.608;2023-05-22T00:26:34;94970.53;;;15.26;100.00
57462;BME280;43308;47.306;8.608;2023-05-22T00:29:00;94972.53;;;15.15;100.00
57462;BME280;43308;47.306;8.608;2023-05-22T00:31:27;94963.75;;;15.08;100.00
57462;BME280;43308;47.306;8.608;2023-05-22T00:33:52;94971.78;;;14.98;100.00
57462;BME280;43308;47.306;8.608;2023-05-22T00:36:18;94976.00;;;14.99;100.00
57462;BME280;43308;47.306;8.608;2023-05-22T00:38:44;94970.31;;;14.96;100.00
57462;BME280;43308;47.306;8.608;2023-05-22T00:41:09;94971.31;;;14.95;100.00
57462;BME280;43308;47.306;8.608;2023-05-22T00:43:37;94969.31;;;15.05;100.00
57462;BME280;43308;47.306;8.608;2023-05-22T00:46:03;94964.88;;;15.06;100.00
57462;BME280;43308;47.306;8.608;2023-05-22T00:48:29;94968.69;;;14.95;100.00
57462;BME280;43308;47.306;8.608;2023-05-22T00:50:56;94970.19;;;14.89;100.00
57462;BME280;43308;47.306;8.608;2023-05-22T00:53:23;94972.31;;;14.85;100.00
57462;BME280;43308;47.306;8.608;2023-05-22T00:55:50;94970.03;;;14.74;100.00
57462;BME280;43308;47.306;8.608;2023-05-22T00:58:17;94971.03;;;14.65;100.00
57462;BME280;43308;47.306;8.608;2023-05-22T01:00:43;94971.53;;;14.60;100.00
57462;BME280;43308;47.306;8.608;2023-05-22T01:03:09;94974.78;;;14.54;100.00
57462;BME280;43308;47.306;8.608;2023-05-22T01:05:39;94977.91;;;14.49;100.00
57462;BME280;43308;47.306;8.608;2023-05-22T01:08:06;94974.47;;;14.41;100.00
57462;BME280;43308;47.306;8.608;2023-05-22T01:10:33;94973.03;;;14.30;100.00
57462;BME280;43308;47.306;8.608;2023-05-22T01:18:30;94977.75;;;14.10;100.00
57462;BME280;43308;47.306;8.608;2023-05-22T01:32:23;94975.13;;;13.77;100.00
57462;BME280;43308;47.306;8.608;2023-05-22T01:34:52;94976.75;;;13.78;100.00
57462;BME280;43308;47.306;8.608;2023-05-22T01:37:20;94985.72;;;13.83;100.00
57462;BME280;43308;47.306;8.608;2023-05-22T01:39:47;94976.25;;;13.74;100.00
57462;BME280;43308;47.306;8.608;2023-05-22T01:42:16;94973.47;;;13.76;100.00
57462;BME280;43308;47.306;8.608;2023-05-22T01:44:41;94977.56;;;13.78;100.00
57462;BME280;43308;47.306;8.608;2023-05-22T01:47:07;94980.81;;;13.72;100.00
57462;BME280;43308;47.306;8.608;2023-05-22T01:49:33;94974.78;;;13.72;100.00
57462;BME280;43308;47.306;8.608;2023-05-22T01:52:11;94975.59;;;13.72;100.00
57462;BME280;43308;47.306;8.608;2023-05-22T01:54:48;94974.94;;;13.70;100.00
57462;BME280;43308;47.306;8.608;2023-05-22T01:57:22;94982.44;;;13.73;100.00
57462;BME280;43308;47.306;8.608;2023-05-22T02:00:02;94987.81;;;13.72;100.00
57462;BME280;43308;47.306;8.608;2023-05-22T02:02:45;94981.13;;;13.69;100.00
57462;BME280;43308;47.306;8.608;2023-05-22T02:05:15;94972.31;;;13.62;100.00
57462;BME280;43308;47.306;8.608;2023-05-22T02:07:42;94978.84;;;13.66;100.00
57462;BME280;43308;47.306;8.608;2023-05-22T02:10:09;94974.94;;;13.62;100.00
57462;BME280;43308;47.306;8.608;2023-05-22T02:12:36;94972.31;;;13.62;100.00
57462;BME280;43308;47.306;8.608;2023-05-22T02:15:03;94978.03;;;13.65;100.00
57462;BME280;43308;47.306;8.608;2023-05-22T02:17:29;94978.66;;;13.51;100.00
57462;BME280;43308;47.306;8.608;2023-05-22T02:19:55;94983.72;;;13.52;100.00
57462;BME280;43308;47.306;8.608;2023-05-22T02:22:21;94973.91;;;13.46;100.00
57462;BME280;43308;47.306;8.608;2023-05-22T02:24:47;94978.50;;;13.52;100.00
57462;BME280;43308;47.306;8.608;2023-05-22T02:27:14;94985.81;;;13.57;100.00
57462;BME280;43308;47.306;8.608;2023-05-22T02:29:41;94964.78;;;13.50;100.00
57462;BME280;43308;47.306;8.608;2023-05-22T02:32:07;94962.28;;;13.32;100.00
57462;BME280;43308;47.306;8.608;2023-05-22T02:34:33;94968.50;;;13.40;100.00
57462;BME280;43308;47.306;8.608;2023-05-22T02:37:00;94969.97;;;13.42;100.00
57462;BME280;43308;47.306;8.608;2023-05-22T02:39:29;94967.22;;;13.44;100.00
57462;BME280;43308;47.306;8.608;2023-05-22T02:41:54;94964.72;;;13.34;100.00
57462;BME280;43308;47.306;8.608;2023-05-22T02:44:20;94969.94;;;13.34;100.00
57462;BME280;43308;47.306;8.608;2023-05-22T02:46:46;94970.75;;;13.34;100.00
57462;BME280;43308;47.306;8.608;2023-05-22T02:49:12;94962.09;;;13.34;100.00
57462;BME280;43308;47.306;8.608;2023-05-22T02:51:38;94965.69;;;13.33;100.00
57462;BME280;43308;47.306;8.608;2023-05-22T02:54:04;94962.28;;;13.32;100.00
57462;BME280;43308;47.306;8.608;2023-05-22T02:56:29;94961.44;;;13.32;100.00
57462;BME280;43308;47.306;8.608;2023-05-22T02:58:55;94964.22;;;13.30;100.00
57462;BME280;43308;47.306;8.608;2023-05-22T03:01:23;94961.06;;;13.18;100.00
57462;BME280;43308;47.306;8.608;2023-05-22T03:03:51;94956.69;;;13.19;100.00
57462;BME280;43308;47.306;8.608;2023-05-22T03:06:16;94962.72;;;13.19;100.00
57462;BME280;43308;47.306;8.608;2023-05-22T03:08:42;94965.00;;;13.23;100.00
57462;BME280;43308;47.306;8.608;2023-05-22T03:11:09;94965.00;;;13.23;100.00
57462;BME280;43308;47.306;8.608;2023-05-22T03:13:35;94962.53;;;13.21;100.00
57462;BME280;43308;47.306;8.608;2023-05-22T03:16:01;94956.81;;;13.17;100.00
57462;BME280;43308;47.306;8.608;2023-05-22T03:18:27;94952.59;;;13.16;100.00
57462;BME280;43308;47.306;8.608;2023-05-22T03:20:54;94959.44;;;13.17;100.00
57462;BME280;43308;47.306;8.608;2023-05-22T03:23:20;94962.72;;;13.19;100.00
57462;BME280;43308;47.306;8.608;2023-05-22T03:25:46;94956.81;;;13.17;100.00
57462;BME280;43308;47.306;8.608;2023-05-22T03:28:15;94944.94;;;13.15;100.00
57462;BME280;43308;47.306;8.608;2023-05-22T03:30:41;94953.91;;;13.20;100.00
57462;BME280;43308;47.306;8.608;2023-05-22T03:33:18;94952.91;;;13.13;100.00
57462;BME280;43308;47.306;8.608;2023-05-22T03:35:44;94951.59;;;13.17;100.00
57462;BME280;43308;47.306;8.608;2023-05-22T03:38:10;94960.44;;;13.16;100.00
57462;BME280;43308;47.306;8.608;2023-05-22T03:40:35;94960.72;;;13.13;100.00
57462;BME280;43308;47.306;8.608;2023-05-22T03:43:02;94955.84;;;13.10;100.00
57462;BME280;43308;47.306;8.608;2023-05-22T03:45:27;94951.25;;;13.04;100.00
57462;BME280;43308;47.306;8.608;2023-05-22T03:47:53;94950.59;;;13.02;100.00
57462;BME280;43308;47.306;8.608;2023-05-22T03:50:18;94947.63;;;12.97;100.00
57462;BME280;43308;47.306;8.608;2023-05-22T03:52:44;94961.31;;;12.99;100.00
57462;BME280;43308;47.306;8.608;2023-05-22T03:55:10;94959.69;;;12.98;100.00
57462;BME280;43308;47.306;8.608;2023-05-22T03:57:35;94962.47;;;12.96;100.00
57462;BME280;43308;47.306;8.608;2023-05-22T04:00:01;94960.81;;;12.95;100.00
57462;BME280;43308;47.306;8.608;2023-05-22T04:02:38;94963.28;;;12.97;100.00
57462;BME280;43308;47.306;8.608;2023-05-22T04:05:07;94957.25;;;12.96;100.00
57462;BME280;43308;47.306;8.608;2023-05-22T04:07:34;94954.78;;;12.95;100.00
57462;BME280;43308;47.306;8.608;2023-05-22T04:10:04;94960.50;;;12.98;100.00
57462;BME280;43308;47.306;8.608;2023-05-22T04:12:30;94959.03;;;12.96;100.00
57462;BME280;43308;47.306;8.608;2023-05-22T04:14:56;94962.75;;;12.93;100.00
57462;BME280;43308;47.306;8.608;2023-05-22T04:17:21;94971.06;;;12.89;100.00
57462;BME280;43308;47.306;8.608;2023-05-22T04:19:47;94969.41;;;12.88;100.00
57462;BME280;43308;47.306;8.608;2023-05-22T04:22:13;94965.84;;;12.89;100.00
57462;BME280;43308;47.306;8.608;2023-05-22T04:24:39;94974.50;;;12.97;100.00
57462;BME280;43308;47.306;8.608;2023-05-22T04:27:05;94983.16;;;12.98;100.00
57462;BME280;43308;47.306;8.608;2023-05-22T04:29:32;94975.69;;;13.03;100.00
57462;BME280;43308;47.306;8.608;2023-05-22T04:32:00;94984.06;;;13.15;100.00
57462;BME280;43308;47.306;8.608;2023-05-22T04:34:26;94984.53;;;13.18;100.00
57462;BME280;43308;47.306;8.608;2023-05-22T04:36:52;94976.22;;;13.15;100.00
57462;BME280;43308;47.306;8.608;2023-05-22T04:39:18;94987.66;;;13.22;100.00
57462;BME280;43308;47.306;8.608;2023-05-22T04:41:44;94978.34;;;13.19;100.00
57462;BME280;43308;47.306;8.608;2023-05-22T04:44:11;94993.06;;;13.29;100.00
57462;BME280;43308;47.306;8.608;2023-05-22T04:46:36;94999.72;;;13.23;100.00
57462;BME280;43308;47.306;8.608;2023-05-22T04:49:02;95004.94;;;13.23;100.00
57462;BME280;43308;47.306;8.608;2023-05-22T04:51:29;94991.03;;;13.14;100.00
57462;BME280;43308;47.306;8.608;2023-05-22T04:53:59;95007.72;;;13.22;100.00
57462;BME280;43308;47.306;8.608;2023-05-22T04:56:27;95007.72;;;13.22;100.00
57462;BME280;43308;47.306;8.608;2023-05-22T04:58:54;95008.97;;;13.17;100.00
57462;BME280;43308;47.306;8.608;2023-05-22T05:01:20;95016.50;;;13.20;100.00
57462;BME280;43308;47.306;8.608;2023-05-22T05:03:45;95012.06;;;13.13;100.00
57462;BME280;43308;47.306;8.608;2023-05-22T05:06:11;95006.06;;;13.20;100.00
57462;BME280;43308;47.306;8.608;2023-05-22T05:08:37;95004.09;;;13.23;100.00
57462;BME280;43308;47.306;8.608;2023-05-22T05:11:03;95007.53;;;13.23;100.00
57462;BME280;43308;47.306;8.608;2023-05-22T05:13:28;95011.13;;;13.22;100.00
57462;BME280;43308;47.306;8.608;2023-05-22T05:15:57;95002.13;;;13.16;100.00
57462;BME280;43308;47.306;8.608;2023-05-22T05:18:25;95005.09;;;13.22;100.00
57462;BME280;43308;47.306;8.608;2023-05-22T05:20:50;95009.31;;;13.23;100.00
57462;BME280;43308;47.306;8.608;2023-05-22T05:23:16;95007.38;;;13.25;100.00
57462;BME280;43308;47.306;8.608;2023-05-22T05:25:42;95005.94;;;13.30;100.00
57462;BME280;43308;47.306;8.608;2023-05-22T05:28:07;95006.16;;;13.37;100.00
57462;BME280;43308;47.306;8.608;2023-05-22T05:30:38;94999.16;;;13.38;100.00
57462;BME280;43308;47.306;8.608;2023-05-22T05:33:12;94998.22;;;13.47;100.00
57462;BME280;43308;47.306;8.608;2023-05-22T05:35:56;95004.91;;;13.58;100.00
57462;BME280;43308;47.306;8.608;2023-05-22T05:38:23;95001.66;;;13.64;100.00
57462;BME280;43308;47.306;8.608;2023-05-22T05:40:49;95002.66;;;13.71;100.00
57462;BME280;43308;47.306;8.608;2023-05-22T05:43:15;95000.06;;;13.79;100.00
57462;BME280;43308;47.306;8.608;2023-05-22T05:45:42;95010.06;;;13.92;100.00
57462;BME280;43308;47.306;8.608;2023-05-22T05:48:08;95009.22;;;14.00;100.00
57462;BME280;43308;47.306;8.608;2023-05-22T05:50:37;95005.97;;;14.06;100.00
57462;BME280;43308;47.306;8.608;2023-05-22T05:53:03;95010.22;;;14.15;100.00
57462;BME280;43308;47.306;8.608;2023-05-22T05:55:29;95014.81;;;14.22;100.00
57462;BME280;43308;47.306;8.608;2023-05-22T05:57:58;95021.16;;;14.35;100.00
57462;BME280;43308;47.306;8.608;2023-05-22T06:00:34;95015.13;;;14.43;100.00
57462;BME280;43308;47.306;8.608;2023-05-22T06:03:00;95014.94;;;14.53;100.00
57462;BME280;43308;47.306;8.608;2023-05-22T06:05:44;95018.75;;;14.67;100.00
57462;BME280;43308;47.306;8.608;2023-05-22T06:08:18;95019.38;;;14.77;100.00
57462;BME280;43308;47.306;8.608;2023-05-22T06:10:46;95026.22;;;14.78;100.00
57462;BME280;43308;47.306;8.608;2023-05-22T06:13:15;95030.81;;;14.76;100.00
57462;BME280;43308;47.306;8.608;2023-05-22T06:15:41;95031.31;;;14.80;100.00
57462;BME280;43308;47.306;8.608;2023-05-22T06:18:06;95032.75;;;14.91;100.00
57462;BME280;43308;47.306;8.608;2023-05-22T06:20:32;95016.06;;;14.92;100.00
57462;BME280;43308;47.306;8.608;2023-05-22T06:22:59;95036.47;;;15.05;100.00
57462;BME280;43308;47.306;8.608;2023-05-22T06:25:24;95027.66;;;15.06;100.00
57462;BME280;43308;47.306;8.608;2023-05-22T06:27:51;95033.50;;;15.16;100.00
57462;BME280;43308;47.306;8.608;2023-05-22T06:30:17;95031.22;;;15.21;100.00
57462;BME280;43308;47.306;8.608;2023-05-22T06:32:44;95034.94;;;15.27;100.00
57462;BME280;43308;47.306;8.608;2023-05-22T06:35:10;95030.03;;;15.32;100.00
57462;BME280;43308;47.306;8.608;2023-05-22T06:37:37;95029.06;;;15.33;100.00
57462;BME280;43308;47.306;8.608;2023-05-22T06:40:05;95032.91;;;15.45;100.00
57462;BME280;43308;47.306;8.608;2023-05-22T06:42:48;95033.53;;;15.56;100.00
57462;BME280;43308;47.306;8.608;2023-05-22T06:45:31;95022.50;;;15.68;100.00
57462;BME280;43308;47.306;8.608;2023-05-22T06:48:25;95032.09;;;15.84;100.00
57462;BME280;43308;47.306;8.608;2023-05-22T06:51:15;95031.41;;;15.91;100.00
57462;BME280;43308;47.306;8.608;2023-05-22T06:53:41;95030.72;;;15.97;100.00
57462;BME280;43308;47.306;8.608;2023-05-22T06:56:13;95024.09;;;16.09;100.00
57462;BME280;43308;47.306;8.608;2023-05-22T06:58:50;95027.34;;;16.11;100.00
57462;BME280;43308;47.306;8.608;2023-05-22T07:01:17;95032.94;;;16.08;100.00
57462;BME280;43308;47.306;8.608;2023-05-22T07:03:56;95034.50;;;16.17;100.00
57462;BME280;43308;47.306;8.608;2023-05-22T07:06:45;95037.94;;;16.18;100.00
57462;BME280;43308;47.306;8.608;2023-05-22T07:09:12;95039.25;;;16.22;100.00
57462;BME280;43308;47.306;8.608;2023-05-22T07:11:40;95032.00;;;16.24;100.00
57462;BME280;43308;47.306;8.608;2023-05-22T07:14:08;95036.66;;;16.37;100.00
57462;BME280;43308;47.306;8.608;2023-05-22T07:16:34;95035.84;;;16.36;100.00
57462;BME280;43308;47.306;8.608;2023-05-22T07:19:02;95042.38;;;16.41;100.00
57462;BME280;43308;47.306;8.608;2023-05-22T07:21:28;95037.69;;;16.51;100.00
57462;BME280;43308;47.306;8.608;2023-05-22T07:23:57;95034.19;;;16.59;100.00
57462;BME280;43308;47.306;8.608;2023-05-22T07:26:22;95036.63;;;16.60;100.00
57462;BME280;43308;47.306;8.608;2023-05-22T07:28:57;95033.84;;;16.62;100.00
57462;BME280;43308;47.306;8.608;2023-05-22T07:31:23;95031.06;;;16.63;100.00
57462;BME280;43308;47.306;8.608;2023-05-22T07:33:49;95040.63;;;16.71;100.00
57462;BME280;43308;47.306;8.608;2023-05-22T07:36:15;95034.50;;;16.79;100.00
57462;BME280;43308;47.306;8.608;2023-05-22T07:38:43;95030.72;;;16.81;100.00
57462;BME280;43308;47.306;8.608;2023-05-22T07:41:09;95034.50;;;17.02;100.00
57462;BME280;43308;47.306;8.608;2023-05-22T07:43:36;95026.91;;;17.07;100.00
57462;BME280;43308;47.306;8.608;2023-05-22T07:46:03;95021.75;;;17.14;100.00
57462;BME280;43308;47.306;8.608;2023-05-22T07:48:35;95030.50;;;17.21;100.00
57462;BME280;43308;47.306;8.608;2023-05-22T07:51:00;95028.97;;;17.27;100.00
57462;BME280;43308;47.306;8.608;2023-05-22T07:53:28;95025.72;;;17.40;100.00
57462;BME280;43308;47.306;8.608;2023-05-22T07:55:57;95026.16;;;17.43;100.00
57462;BME280;43308;47.306;8.608;2023-05-22T07:58:24;95020.91;;;17.43;100.00
57462;BME280;43308;47.306;8.608;2023-05-22T08:00:49;95020.72;;;17.60;100.00
57462;BME280;43308;47.306;8.608;2023-05-22T08:03:15;95029.31;;;17.68;100.00
57462;BME280;43308;47.306;8.608;2023-05-22T08:05:41;95027.38;;;17.77;100.00
57462;BME280;43308;47.306;8.608;2023-05-22T08:08:07;95019.50;;;17.77;100.00
57462;BME280;43308;47.306;8.608;2023-05-22T08:10:34;95025.47;;;17.86;100.00
57462;BME280;43308;47.306;8.608;2023-05-22T08:13:00;95029.06;;;18.00;100.00
57462;BME280;43308;47.306;8.608;2023-05-22T08:15:33;95030.09;;;17.99;100.00
57462;BME280;43308;47.306;8.608;2023-05-22T08:18:00;95029.69;;;18.02;100.00
57462;BME280;43308;47.306;8.608;2023-05-22T08:20:25;95028.06;;;18.01;100.00
57462;BME280;43308;47.306;8.608;2023-05-22T08:22:51;95029.06;;;18.00;100.00
57462;BME280;43308;47.306;8.608;2023-05-22T08:25:17;95028.59;;;18.11;100.00
57462;BME280;43308;47.306;8.608;2023-05-22T08:27:42;95024.59;;;18.15;100.00
57462;BME280;43308;47.306;8.608;2023-05-22T08:30:08;95028.72;;;18.25;100.00
57462;BME280;43308;47.306;8.608;2023-05-22T08:32:34;95025.97;;;18.33;100.00
57462;BME280;43308;47.306;8.608;2023-05-22T08:35:00;95021.16;;;18.36;100.00
57462;BME280;43308;47.306;8.608;2023-05-22T08:37:25;95028.84;;;18.38;100.00
57462;BME280;43308;47.306;8.608;2023-05-22T08:39:51;95021.19;;;18.43;100.00
57462;BME280;43308;47.306;8.608;2023-05-22T08:42:16;95018.44;;;18.51;100.00
57462;BME280;43308;47.306;8.608;2023-05-22T08:44:42;95022.06;;;18.50;100.00
57462;BME280;43308;47.306;8.608;2023-05-22T08:47:08;95018.53;;;18.65;100.00
57462;BME280;43308;47.306;8.608;2023-05-22T08:49:38;95022.72;;;18.81;100.00
57462;BME280;43308;47.306;8.608;2023-05-22T08:52:09;95023.53;;;18.81;100.00
57462;BME280;43308;47.306;8.608;2023-05-22T08:54:40;95030.53;;;18.96;100.00
57462;BME280;43308;47.306;8.608;2023-05-22T08:57:07;95027.34;;;19.00;100.00
57462;BME280;43308;47.306;8.608;2023-05-22T08:59:35;95018.59;;;18.93;100.00
57462;BME280;43308;47.306;8.608;2023-05-22T09:02:01;95023.75;;;19.08;100.00
57462;BME280;43308;47.306;8.608;2023-05-22T09:04:28;95010.47;;;19.23;100.00
57462;BME280;43308;47.306;8.608;2023-05-22T09:06:54;95011.69;;;19.27;100.00
57462;BME280;43308;47.306;8.608;2023-05-22T09:09:19;95026.06;;;19.25;100.00
57462;BME280;43308;47.306;8.608;2023-05-22T09:11:45;95024.28;;;19.32;100.00
57462;BME280;43308;47.306;8.608;2023-05-22T09:14:11;95019.88;;;19.39;100.00
57462;BME280;43308;47.306;8.608;2023-05-22T09:16:48;95016.69;;;19.50;100.00
57462;BME280;43308;47.306;8.608;2023-05-22T09:19:14;95010.25;;;19.60;100.00
57462;BME280;43308;47.306;8.608;2023-05-22T09:21:40;95013.97;;;19.79;100.00
57462;BME280;43308;47.306;8.608;2023-05-22T09:24:07;95012.94;;;19.80;100.00
57462;BME280;43308;47.306;8.608;2023-05-22T09:26:34;95011.31;;;19.79;100.00
57462;BME280;43308;47.306;8.608;2023-05-22T09:29:00;95017.59;;;19.78;100.00
57462;BME280;43308;47.306;8.608;2023-05-22T09:31:29;95010.28;;;19.73;100.00
57462;BME280;43308;47.306;8.608;2023-05-22T09:33:54;95009.84;;;19.63;100.00
57462;BME280;43308;47.306;8.608;2023-05-22T09:36:20;95014.53;;;19.74;100.00
57462;BME280;43308;47.306;8.608;2023-05-22T09:38:46;95013.22;;;19.92;100.00
57462;BME280;43308;47.306;8.608;2023-05-22T09:41:12;95018.09;;;20.01;100.00
57462;BME280;43308;47.306;8.608;2023-05-22T09:43:37;95021.78;;;20.21;100.00
57462;BME280;43308;47.306;8.608;2023-05-22T09:46:03;95006.81;;;20.21;91.18
57462;BME280;43308;47.306;8.608;2023-05-22T09:48:33;95020.19;;;20.26;84.20
57462;BME280;43308;47.306;8.608;2023-05-22T09:51:01;95008.41;;;20.29;84.15
57462;BME280;43308;47.306;8.608;2023-05-22T09:53:28;95009.63;;;20.19;81.59
57462;BME280;43308;47.306;8.608;2023-05-22T09:55:55;95014.09;;;20.39;83.39
57462;BME280;43308;47.306;8.608;2023-05-22T09:58:24;95007.59;;;20.28;81.93
57462;BME280;43308;47.306;8.608;2023-05-22T10:00:51;95007.63;;;20.55;81.21
57462;BME280;43308;47.306;8.608;2023-05-22T10:03:21;95000.72;;;20.54;78.94
57462;BME280;43308;47.306;8.608;2023-05-22T10:05:51;95005.63;;;20.71;77.69
57462;BME280;43308;47.306;8.608;2023-05-22T10:08:23;95005.63;;;20.77;77.48
57462;BME280;43308;47.306;8.608;2023-05-22T10:10:51;94987.75;;;20.73;79.46
57462;BME280;43308;47.306;8.608;2023-05-22T10:13:20;94995.50;;;20.81;77.59
57462;BME280;43308;47.306;8.608;2023-05-22T10:15:46;95000.75;;;21.01;78.45
57462;BME280;43308;47.306;8.608;2023-05-22T10:18:13;95001.94;;;21.05;74.61
57462;BME280;43308;47.306;8.608;2023-05-22T10:20:40;94998.69;;;21.10;73.95
57462;BME280;43308;47.306;8.608;2023-05-22T10:23:06;94988.91;;;21.24;72.66
57462;BME280;43308;47.306;8.608;2023-05-22T10:25:37;94985.97;;;21.52;73.57
57462;BME280;43308;47.306;8.608;2023-05-22T10:28:03;94985.13;;;21.65;74.86
57462;BME280;43308;47.306;8.608;2023-05-22T10:30:35;94988.97;;;21.69;71.17
57462;BME280;43308;47.306;8.608;2023-05-22T10:33:33;94985.97;;;21.97;71.11
57462;BME280;43308;47.306;8.608;2023-05-22T10:36:05;94976.72;;;22.13;69.78
57462;BME280;43308;47.306;8.608;2023-05-22T10:38:42;94982.06;;;22.07;67.74
57462;BME280;43308;47.306;8.608;2023-05-22T10:41:11;94974.16;;;22.00;67.37
57462;BME280;43308;47.306;8.608;2023-05-22T10:43:40;94974.75;;;22.09;68.05
57462;BME280;43308;47.306;8.608;2023-05-22T10:46:07;94972.22;;;22.21;68.37
57462;BME280;43308;47.306;8.608;2023-05-22T10:48:38;94976.16;;;22.11;67.66
57462;BME280;43308;47.306;8.608;2023-05-22T10:51:06;94970.59;;;22.19;66.33
57462;BME280;43308;47.306;8.608;2023-05-22T10:53:32;94960.66;;;22.47;67.02
57462;BME280;43308;47.306;8.608;2023-05-22T10:55:59;94976.44;;;22.85;68.58
57462;BME280;43308;47.306;8.608;2023-05-22T10:58:33;94959.94;;;22.83;64.82
57462;BME280;43308;47.306;8.608;2023-05-22T11:01:19;94969.28;;;22.86;63.62
57462;BME280;43308;47.306;8.608;2023-05-22T11:03:55;94957.75;;;22.99;63.83
57462;BME280;43308;47.306;8.608;2023-05-22T11:06:38;94961.63;;;23.22;63.58
57462;BME280;43308;47.306;8.608;2023-05-22T11:11:43;94959.13;;;23.27;62.42
57462;BME280;43308;47.306;8.608;2023-05-22T11:14:15;94950.06;;;23.16;61.47
57462;BME280;43308;47.306;8.608;2023-05-22T11:16:41;94945.13;;;23.20;61.62
57462;BME280;43308;47.306;8.608;2023-05-22T11:19:08;94942.16;;;23.46;60.11
57462;BME280;43308;47.306;8.608;2023-05-22T11:21:45;94943.91;;;23.71;58.66
57462;BME280;43308;47.306;8.608;2023-05-22T11:24:11;94948.03;;;24.28;59.51
57462;BME280;43308;47.306;8.608;2023-05-22T11:26:41;94938.88;;;24.66;58.26
57462;BME280;43308;47.306;8.608;2023-05-22T11:29:07;94934.78;;;24.51;55.76
57462;BME280;43308;47.306;8.608;2023-05-22T11:31:34;94932.94;;;24.28;57.15
57462;BME280;43308;47.306;8.608;2023-05-22T11:34:01;94937.59;;;24.92;55.00
57462;BME280;43308;47.306;8.608;2023-05-22T11:36:27;94932.28;;;24.68;54.47
57462;BME280;43308;47.306;8.608;2023-05-22T11:38:57;94925.09;;;25.16;53.96
57462;BME280;43308;47.306;8.608;2023-05-22T11:41:28;94921.25;;;25.48;51.60
57462;BME280;43308;47.306;8.608;2023-05-22T11:43:54;94921.00;;;25.49;51.81
57462;BME280;43308;47.306;8.608;2023-05-22T11:46:19;94933.16;;;26.03;51.62
57462;BME280;43308;47.306;8.608;2023-05-22T11:48:46;94923.56;;;26.02;49.77
57462;BME280;43308;47.306;8.608;2023-05-22T11:51:11;94932.00;;;25.29;49.90
57462;BME280;43308;47.306;8.608;2023-05-22T11:53:37;94931.16;;;25.53;47.52
57462;BME280;43308;47.306;8.608;2023-05-22T11:56:04;94925.13;;;25.57;49.23
57462;BME280;43308;47.306;8.608;2023-05-22T11:58:30;94925.88;;;26.27;46.26
57462;BME280;43308;47.306;8.608;2023-05-22T12:01:00;94909.25;;;26.54;46.76
57462;BME280;43308;47.306;8.608;2023-05-22T12:03:27;94922.66;;;26.42;44.59
57462;BME280;43308;47.306;8.608;2023-05-22T12:05:54;94927.94;;;26.08;43.32
57462;BME280;43308;47.306;8.608;2023-05-22T12:08:21;94918.88;;;26.38;46.99
57462;BME280;43308;47.306;8.608;2023-05-22T12:10:51;94914.91;;;26.41;44.11
57462;BME280;43308;47.306;8.608;2023-05-22T12:13:27;94911.75;;;27.17;43.27
57462;BME280;43308;47.306;8.608;2023-05-22T12:15:56;94915.84;;;27.25;45.09
57462;BME280;43308;47.306;8.608;2023-05-22T12:18:22;94917.66;;;27.41;42.79
57462;BME280;43308;47.306;8.608;2023-05-22T12:20:54;94913.41;;;27.67;41.95
57462;BME280;43308;47.306;8.608;2023-05-22T12:23:22;94908.03;;;27.62;43.51
57462;BME280;43308;47.306;8.608;2023-05-22T12:25:55;94903.81;;;27.66;43.15
57462;BME280;43308;47.306;8.608;2023-05-22T12:28:21;94909.06;;;27.56;42.15
57462;BME280;43308;47.306;8.608;2023-05-22T12:30:51;94901.03;;;27.34;40.53
57462;BME280;43308;47.306;8.608;2023-05-22T12:33:17;94900.31;;;27.88;41.06
57462;BME280;43308;47.306;8.608;2023-05-22T12:35:45;94896.56;;;28.49;42.89
57462;BME280;43308;47.306;8.608;2023-05-22T12:38:14;94894.66;;;28.82;39.65
57462;BME280;43308;47.306;8.608;2023-05-22T12:40:39;94887.03;;;28.63;40.61
57462;BME280;43308;47.306;8.608;2023-05-22T12:43:05;94887.84;;;29.07;42.41
57462;BME280;43308;47.306;8.608;2023-05-22T12:45:30;94887.97;;;29.27;41.46
57462;BME280;43308;47.306;8.608;2023-05-22T12:47:56;94889.59;;;28.80;39.59
57462;BME280;43308;47.306;8.608;2023-05-22T12:50:22;94886.47;;;28.99;41.35
57462;BME280;43308;47.306;8.608;2023-05-22T12:52:47;94882.06;;;29.25;38.23
57462;BME280;43308;47.306;8.608;2023-05-22T12:55:13;94885.41;;;29.00;36.87
57462;BME280;43308;47.306;8.608;2023-05-22T12:57:38;94879.75;;;29.49;35.53
57462;BME280;43308;47.306;8.608;2023-05-22T13:00:05;94883.34;;;29.18;37.10
57462;BME280;43308;47.306;8.608;2023-05-22T13:02:30;94886.84;;;29.97;35.24
57462;BME280;43308;47.306;8.608;2023-05-22T13:04:56;94866.44;;;29.75;32.93
57462;BME280;43308;47.306;8.608;2023-05-22T13:07:21;94881.94;;;29.63;34.82
57462;BME280;43308;47.306;8.608;2023-05-22T13:09:47;94874.00;;;30.04;34.32
57462;BME280;43308;47.306;8.608;2023-05-22T13:12:13;94874.69;;;29.63;38.66
57462;BME280;43308;47.306;8.608;2023-05-22T13:14:38;94874.09;;;29.41;40.96
57462;BME280;43308;47.306;8.608;2023-05-22T13:17:04;94870.19;;;29.79;37.17